Detalii statie VIITORUL MAILAT [00001CF8]

Toti senzorii

Date Temperatura solului [C]Precipitatii [mm]Voltaj baterie [mV]HC Air temperature [C]HC Relative humidity [%]Punctul de roua [C]
medieminmaxsumaultimamedieminmaxmediemediemin
2019-04-19 19:00:00 14.3 14.3 14.5 0 7226 19.27 17.56 20.32 0 0 0
2019-04-19 20:00:00 14.4 14.3 14.5 0 7088 15.07 13.23 17.05 0 0 0
2019-04-19 21:00:00 14.4 14.3 14.5 0 7040 11.94 11.06 12.86 0 0 0
2019-04-19 22:00:00 14.3 14.3 14.5 0 7010 10.49 10.12 10.75 0 0 0
2019-04-19 23:00:00 14.2 14.1 14.4 0 7000 8.74 7.17 10.33 0 0 0
2019-04-20 00:00:00 14.1 13.9 14.2 0 6992 8.91 6.64 9.49 0 0 0
2019-04-20 01:00:00 13.9 13.9 14.1 0 6972 7.3 6.62 8 0 0 0
2019-04-20 02:00:00 13.8 13.8 14 0 6972 5.69 5.18 6.52 0 0 0
2019-04-20 03:00:00 13.6 13.6 13.8 0 6972 4.49 2.6 5.92 0 0 0
2019-04-20 04:00:00 13.4 13.4 13.6 0 6962 3.79 3.3 4.31 0 0 0
2019-04-20 05:00:00 13.2 13.1 13.4 0 6962 3.28 2.91 3.57 0 0 0
2019-04-20 06:00:00 13 12.8 13.2 0 6942 3.51 2.9 3.79 0 0 0
2019-04-20 07:00:00 12.9 12.8 13.1 0 6952 4.04 2.08 6.33 0 0 0
2019-04-20 08:00:00 12.6 12.5 12.8 0 7020 10.85 6.96 13.66 0 0 0
2019-04-20 09:00:00 12.4 12.4 12.6 0 7098 14.57 13.68 15.59 0 0 0
2019-04-20 10:00:00 12.3 12.2 12.5 0 7304 16.28 15.37 16.95 0 0 0
2019-04-20 11:00:00 12.2 12.2 12.3 0 7304 18.04 17.41 18.94 0 0 0
2019-04-20 12:00:00 12.3 12.2 12.5 0 7294 19.15 17.77 20.72 0 0 0
2019-04-20 13:00:00 12.5 12.4 12.8 0 7294 20.76 19.83 22.13 0 0 0
2019-04-20 14:00:00 12.8 12.7 13 0 7294 21.27 20.71 22.03 0 0 0
2019-04-20 15:00:00 13.2 13.1 13.4 0 7284 21.27 20.15 22.72 0 0 0
2019-04-20 16:00:00 13.7 13.5 14.1 0 7294 19.61 18.64 20.04 0 0 0
2019-04-20 17:00:00 14 13.9 14.3 0 7294 19.93 18.98 21.1 0 0 0
2019-04-20 18:00:00 14.3 14.1 14.5 0 7294 19.38 18.29 20.48 0 0 0
2019-04-20 19:00:00 14.4 14.4 14.6 0 7236 17.46 14.91 18.41 0 0 0
2019-04-20 20:00:00 14.5 14.4 14.6 0 7098 11.89 9.9 14.3 0 0 0
2019-04-20 21:00:00 14.4 14.3 14.6 0 7040 9.51 7.71 11.03 0 0 0
2019-04-20 22:00:00 14.4 14.4 14.6 0 7010 8.04 7.06 9.55 50 4.1 0
2019-04-20 23:00:00 14.3 14.3 14.5 0 6982 6.74 5.9 8.01 83.33 5.5 0
2019-04-21 00:00:00 14.2 14.1 14.4 0 6992 6.31 5.58 7.14 100 6.2 5.5
2019-04-21 01:00:00 14 14 14.1 0 6982 7.61 6.73 8.3 25 0
2019-04-21 02:00:00 13.9 13.8 14.2 0 6972 7.3 5.82 8.42 75 0
2019-04-21 03:00:00 13.7 13.6 13.8 0 6972 6.16 5.49 6.94 100 6.1 5.4
2019-04-21 04:00:00 13.5 13.4 13.8 0 6952 5.3 4.69 5.94 100 5.2 4.6
2019-04-21 05:00:00 13.3 13.3 13.5 0 6942 4.8 3.67 5.29 100 4.7 3.6
2019-04-21 06:00:00 13.2 13.2 13.4 0 6952 4.71 4.41 5.03 100 4.6 4.4
2019-04-21 07:00:00 13 12.9 13.1 0 6962 5.25 4.69 6.37 100 5.2 4.6
2019-04-21 08:00:00 12.7 12.6 13 0 7080 8.3 6.83 9.6 100 8.2 6.8
2019-04-21 09:00:00 12.6 12.4 12.7 0 7206 11.58 9.96 14.49 100 11.5 9.9
2019-04-21 10:00:00 12.4 12.4 12.6 0 7294 16.51 14.2 19.1 100 16.4 14.2
2019-04-21 11:00:00 12.4 12.4 12.5 0 7294 20.87 18.9 22.48 100 20.8 18.9
2019-04-21 12:00:00 12.4 12.4 12.6 0 7294 22.17 20.93 23.62 100 22.1 20.9
2019-04-21 13:00:00 12.6 12.5 12.8 0 7294 23 21.44 25.13 100 22.9 21.4
2019-04-21 14:00:00 12.9 12.8 13.1 0 7294 22.3 21.41 23.7 100 22.2 21.4
2019-04-21 15:00:00 13.3 13.1 13.5 0 7294 21.8 21.05 23.58 100 21.7 21
2019-04-21 16:00:00 13.6 13.4 13.8 0 7284 21.39 20.51 22.46 99.48 21.1 20.2
2019-04-21 17:00:00 13.8 13.7 14 0 7294 21.82 21.26 22.41 98.26 21.4 20.5
2019-04-21 18:00:00 14 14 14.2 0 7206 20.36 19.38 21.44 99.33 20.1 19.3